sensor_id;sensor_type;location;lat;lon;timestamp;P1;durP1;ratioP1;P2;durP2;ratioP2
65831;SDS011;52593;42.648;23.332;2023-05-10T00:01:51;8.17;;;3.73;;
65831;SDS011;52593;42.648;23.332;2023-05-10T00:04:17;8.17;;;4.00;;
65831;SDS011;52593;42.648;23.332;2023-05-10T00:06:42;9.73;;;3.97;;
65831;SDS011;52593;42.648;23.332;2023-05-10T00:09:07;9.13;;;4.10;;
65831;SDS011;52593;42.648;23.332;2023-05-10T00:11:33;8.00;;;3.50;;
65831;SDS011;52593;42.648;23.332;2023-05-10T00:13:58;9.33;;;4.33;;
65831;SDS011;52593;42.648;23.332;2023-05-10T00:16:24;8.87;;;4.10;;
65831;SDS011;52593;42.648;23.332;2023-05-10T00:18:49;9.03;;;4.37;;
65831;SDS011;52593;42.648;23.332;2023-05-10T00:21:14;7.90;;;4.00;;
65831;SDS011;52593;42.648;23.332;2023-05-10T00:23:40;8.53;;;4.10;;
65831;SDS011;52593;42.648;23.332;2023-05-10T00:26:05;7.53;;;4.03;;
65831;SDS011;52593;42.648;23.332;2023-05-10T00:28:30;8.67;;;4.17;;
65831;SDS011;52593;42.648;23.332;2023-05-10T00:30:56;9.00;;;4.47;;
65831;SDS011;52593;42.648;23.332;2023-05-10T00:33:21;8.13;;;4.38;;
65831;SDS011;52593;42.648;23.332;2023-05-10T00:35:47;8.67;;;3.93;;
65831;SDS011;52593;42.648;23.332;2023-05-10T00:38:12;8.57;;;4.50;;
65831;SDS011;52593;42.648;23.332;2023-05-10T00:40:38;9.35;;;4.68;;
65831;SDS011;52593;42.648;23.332;2023-05-10T00:43:03;10.07;;;4.47;;
65831;SDS011;52593;42.648;23.332;2023-05-10T00:45:30;9.30;;;4.70;;
65831;SDS011;52593;42.648;23.332;2023-05-10T00:47:57;9.98;;;4.40;;
65831;SDS011;52593;42.648;23.332;2023-05-10T00:50:24;8.48;;;4.43;;
65831;SDS011;52593;42.648;23.332;2023-05-10T00:52:50;9.80;;;4.70;;
65831;SDS011;52593;42.648;23.332;2023-05-10T00:55:16;10.30;;;4.70;;
65831;SDS011;52593;42.648;23.332;2023-05-10T00:57:43;9.30;;;4.78;;
65831;SDS011;52593;42.648;23.332;2023-05-10T01:00:09;8.63;;;4.60;;
65831;SDS011;52593;42.648;23.332;2023-05-10T01:02:36;9.57;;;4.68;;
65831;SDS011;52593;42.648;23.332;2023-05-10T01:05:02;10.23;;;5.00;;
65831;SDS011;52593;42.648;23.332;2023-05-10T01:07:30;10.02;;;4.93;;
65831;SDS011;52593;42.648;23.332;2023-05-10T01:09:56;8.70;;;4.63;;
65831;SDS011;52593;42.648;23.332;2023-05-10T01:12:22;9.48;;;4.72;;
65831;SDS011;52593;42.648;23.332;2023-05-10T01:14:48;10.00;;;5.00;;
65831;SDS011;52593;42.648;23.332;2023-05-10T01:17:13;10.43;;;4.70;;
65831;SDS011;52593;42.648;23.332;2023-05-10T01:19:41;9.82;;;4.70;;
65831;SDS011;52593;42.648;23.332;2023-05-10T01:22:31;9.13;;;4.90;;
65831;SDS011;52593;42.648;23.332;2023-05-10T01:25:51;9.17;;;4.53;;
65831;SDS011;52593;42.648;23.332;2023-05-10T01:33:27;10.48;;;3.92;;
65831;SDS011;52593;42.648;23.332;2023-05-10T01:36:13;7.88;;;3.78;;
65831;SDS011;52593;42.648;23.332;2023-05-10T01:41:25;8.68;;;3.55;;
65831;SDS011;52593;42.648;23.332;2023-05-10T01:46:33;8.05;;;3.92;;
65831;SDS011;52593;42.648;23.332;2023-05-10T01:49:01;8.18;;;3.78;;
65831;SDS011;52593;42.648;23.332;2023-05-10T01:51:31;8.43;;;3.65;;
65831;SDS011;52593;42.648;23.332;2023-05-10T01:54:02;7.40;;;3.55;;
65831;SDS011;52593;42.648;23.332;2023-05-10T01:56:32;8.43;;;3.70;;
65831;SDS011;52593;42.648;23.332;2023-05-10T01:59:00;7.57;;;3.75;;
65831;SDS011;52593;42.648;23.332;2023-05-10T02:01:29;8.48;;;4.03;;
65831;SDS011;52593;42.648;23.332;2023-05-10T02:03:55;8.15;;;3.80;;
65831;SDS011;52593;42.648;23.332;2023-05-10T02:06:23;9.20;;;3.87;;
65831;SDS011;52593;42.648;23.332;2023-05-10T02:08:50;8.02;;;3.78;;
65831;SDS011;52593;42.648;23.332;2023-05-10T02:11:18;9.27;;;3.40;;
65831;SDS011;52593;42.648;23.332;2023-05-10T02:13:46;7.15;;;3.42;;
65831;SDS011;52593;42.648;23.332;2023-05-10T02:16:14;6.97;;;3.28;;
65831;SDS011;52593;42.648;23.332;2023-05-10T02:18:42;9.07;;;4.03;;
65831;SDS011;52593;42.648;23.332;2023-05-10T02:21:09;7.30;;;3.72;;
65831;SDS011;52593;42.648;23.332;2023-05-10T02:23:35;7.55;;;3.40;;
65831;SDS011;52593;42.648;23.332;2023-05-10T02:26:02;9.32;;;3.85;;
65831;SDS011;52593;42.648;23.332;2023-05-10T02:28:30;8.85;;;3.67;;
65831;SDS011;52593;42.648;23.332;2023-05-10T02:30:57;7.83;;;3.43;;
65831;SDS011;52593;42.648;23.332;2023-05-10T02:33:23;8.40;;;3.42;;
65831;SDS011;52593;42.648;23.332;2023-05-10T02:35:50;8.15;;;3.65;;
65831;SDS011;52593;42.648;23.332;2023-05-10T02:38:16;7.57;;;3.60;;
65831;SDS011;52593;42.648;23.332;2023-05-10T02:40:45;8.63;;;3.53;;
65831;SDS011;52593;42.648;23.332;2023-05-10T02:43:12;9.57;;;3.40;;
65831;SDS011;52593;42.648;23.332;2023-05-10T02:45:40;12.65;;;3.90;;
65831;SDS011;52593;42.648;23.332;2023-05-10T02:48:08;8.77;;;4.10;;
65831;SDS011;52593;42.648;23.332;2023-05-10T02:50:33;9.60;;;4.10;;
65831;SDS011;52593;42.648;23.332;2023-05-10T02:53:01;8.32;;;3.65;;
65831;SDS011;52593;42.648;23.332;2023-05-10T02:55:32;9.10;;;4.07;;
65831;SDS011;52593;42.648;23.332;2023-05-10T02:58:03;8.65;;;3.72;;
65831;SDS011;52593;42.648;23.332;2023-05-10T03:00:29;11.10;;;4.03;;
65831;SDS011;52593;42.648;23.332;2023-05-10T03:02:54;10.17;;;4.17;;
65831;SDS011;52593;42.648;23.332;2023-05-10T03:05:20;8.68;;;3.83;;
65831;SDS011;52593;42.648;23.332;2023-05-10T03:07:46;10.93;;;4.22;;
65831;SDS011;52593;42.648;23.332;2023-05-10T03:10:12;9.60;;;4.20;;
65831;SDS011;52593;42.648;23.332;2023-05-10T03:12:52;10.52;;;4.25;;
65831;SDS011;52593;42.648;23.332;2023-05-10T03:20:57;10.37;;;3.97;;
65831;SDS011;52593;42.648;23.332;2023-05-10T03:23:27;8.35;;;4.05;;
65831;SDS011;52593;42.648;23.332;2023-05-10T03:25:59;9.43;;;4.28;;
65831;SDS011;52593;42.648;23.332;2023-05-10T03:28:25;9.10;;;4.00;;
65831;SDS011;52593;42.648;23.332;2023-05-10T03:30:52;9.07;;;4.05;;
65831;SDS011;52593;42.648;23.332;2023-05-10T03:33:19;8.57;;;3.57;;
65831;SDS011;52593;42.648;23.332;2023-05-10T03:35:45;9.65;;;4.03;;
65831;SDS011;52593;42.648;23.332;2023-05-10T03:38:11;9.55;;;4.18;;
65831;SDS011;52593;42.648;23.332;2023-05-10T03:40:37;7.53;;;3.80;;
65831;SDS011;52593;42.648;23.332;2023-05-10T03:43:03;9.25;;;3.90;;
65831;SDS011;52593;42.648;23.332;2023-05-10T03:45:28;9.03;;;4.03;;
65831;SDS011;52593;42.648;23.332;2023-05-10T03:47:54;9.07;;;3.87;;
65831;SDS011;52593;42.648;23.332;2023-05-10T03:50:19;8.00;;;3.65;;
65831;SDS011;52593;42.648;23.332;2023-05-10T03:52:45;9.70;;;3.87;;
65831;SDS011;52593;42.648;23.332;2023-05-10T03:55:10;8.65;;;3.83;;
65831;SDS011;52593;42.648;23.332;2023-05-10T03:57:36;8.13;;;3.73;;
65831;SDS011;52593;42.648;23.332;2023-05-10T04:00:02;8.48;;;3.70;;
65831;SDS011;52593;42.648;23.332;2023-05-10T04:02:29;8.47;;;3.90;;
65831;SDS011;52593;42.648;23.332;2023-05-10T04:04:55;7.20;;;3.63;;
65831;SDS011;52593;42.648;23.332;2023-05-10T04:07:21;8.02;;;3.15;;
65831;SDS011;52593;42.648;23.332;2023-05-10T04:09:46;7.60;;;3.60;;
65831;SDS011;52593;42.648;23.332;2023-05-10T04:12:12;7.00;;;3.65;;
65831;SDS011;52593;42.648;23.332;2023-05-10T04:14:37;8.77;;;3.63;;
65831;SDS011;52593;42.648;23.332;2023-05-10T04:17:02;9.30;;;3.73;;
65831;SDS011;52593;42.648;23.332;2023-05-10T04:19:28;7.90;;;3.50;;
65831;SDS011;52593;42.648;23.332;2023-05-10T04:21:58;8.45;;;3.90;;
65831;SDS011;52593;42.648;23.332;2023-05-10T04:24:23;9.40;;;3.55;;
65831;SDS011;52593;42.648;23.332;2023-05-10T04:26:49;8.83;;;3.53;;
65831;SDS011;52593;42.648;23.332;2023-05-10T04:29:14;8.43;;;3.90;;
65831;SDS011;52593;42.648;23.332;2023-05-10T04:31:40;9.87;;;3.70;;
65831;SDS011;52593;42.648;23.332;2023-05-10T04:34:05;10.33;;;4.10;;
65831;SDS011;52593;42.648;23.332;2023-05-10T04:36:31;9.47;;;3.80;;
65831;SDS011;52593;42.648;23.332;2023-05-10T04:38:57;7.97;;;3.90;;
65831;SDS011;52593;42.648;23.332;2023-05-10T04:41:23;8.20;;;4.10;;
65831;SDS011;52593;42.648;23.332;2023-05-10T04:43:49;7.57;;;3.53;;
65831;SDS011;52593;42.648;23.332;2023-05-10T04:46:15;9.32;;;4.03;;
65831;SDS011;52593;42.648;23.332;2023-05-10T04:48:40;9.17;;;3.90;;
65831;SDS011;52593;42.648;23.332;2023-05-10T04:51:05;8.83;;;4.00;;
65831;SDS011;52593;42.648;23.332;2023-05-10T04:53:31;8.63;;;3.87;;
65831;SDS011;52593;42.648;23.332;2023-05-10T04:55:57;9.23;;;4.00;;
65831;SDS011;52593;42.648;23.332;2023-05-10T04:58:23;11.87;;;4.37;;
65831;SDS011;52593;42.648;23.332;2023-05-10T05:00:48;7.90;;;4.37;;
65831;SDS011;52593;42.648;23.332;2023-05-10T05:03:14;9.67;;;4.10;;
65831;SDS011;52593;42.648;23.332;2023-05-10T05:05:39;10.13;;;3.90;;
65831;SDS011;52593;42.648;23.332;2023-05-10T05:08:05;12.00;;;4.03;;
65831;SDS011;52593;42.648;23.332;2023-05-10T05:10:30;13.67;;;4.87;;
65831;SDS011;52593;42.648;23.332;2023-05-10T05:12:56;10.67;;;4.90;;
65831;SDS011;52593;42.648;23.332;2023-05-10T05:15:21;10.57;;;4.67;;
65831;SDS011;52593;42.648;23.332;2023-05-10T05:17:47;9.50;;;4.50;;
65831;SDS011;52593;42.648;23.332;2023-05-10T05:20:12;9.20;;;4.10;;
65831;SDS011;52593;42.648;23.332;2023-05-10T05:22:38;11.57;;;4.00;;
65831;SDS011;52593;42.648;23.332;2023-05-10T05:25:03;9.40;;;4.40;;
65831;SDS011;52593;42.648;23.332;2023-05-10T05:27:29;14.48;;;4.88;;
65831;SDS011;52593;42.648;23.332;2023-05-10T05:29:55;12.00;;;4.70;;
65831;SDS011;52593;42.648;23.332;2023-05-10T05:32:21;10.70;;;4.47;;
65831;SDS011;52593;42.648;23.332;2023-05-10T05:34:47;9.65;;;4.55;;
65831;SDS011;52593;42.648;23.332;2023-05-10T05:37:14;9.52;;;4.60;;
65831;SDS011;52593;42.648;23.332;2023-05-10T05:39:42;11.37;;;5.43;;
65831;SDS011;52593;42.648;23.332;2023-05-10T05:42:11;10.77;;;4.85;;
65831;SDS011;52593;42.648;23.332;2023-05-10T05:44:37;10.90;;;4.50;;
65831;SDS011;52593;42.648;23.332;2023-05-10T05:47:03;12.98;;;4.93;;
65831;SDS011;52593;42.648;23.332;2023-05-10T05:49:29;11.40;;;5.20;;
65831;SDS011;52593;42.648;23.332;2023-05-10T05:51:58;10.98;;;5.00;;
65831;SDS011;52593;42.648;23.332;2023-05-10T05:54:24;12.88;;;5.30;;
65831;SDS011;52593;42.648;23.332;2023-05-10T05:56:49;15.47;;;5.73;;
65831;SDS011;52593;42.648;23.332;2023-05-10T05:59:15;12.53;;;6.00;;
65831;SDS011;52593;42.648;23.332;2023-05-10T06:01:40;12.57;;;5.47;;
65831;SDS011;52593;42.648;23.332;2023-05-10T06:04:06;11.30;;;5.80;;
65831;SDS011;52593;42.648;23.332;2023-05-10T06:06:31;13.10;;;6.00;;
65831;SDS011;52593;42.648;23.332;2023-05-10T06:08:57;12.37;;;5.87;;
65831;SDS011;52593;42.648;23.332;2023-05-10T06:11:22;13.35;;;6.25;;
65831;SDS011;52593;42.648;23.332;2023-05-10T06:13:48;12.67;;;5.37;;
65831;SDS011;52593;42.648;23.332;2023-05-10T06:16:14;11.88;;;5.38;;
65831;SDS011;52593;42.648;23.332;2023-05-10T06:18:39;15.60;;;5.93;;
65831;SDS011;52593;42.648;23.332;2023-05-10T06:21:05;12.47;;;5.57;;
65831;SDS011;52593;42.648;23.332;2023-05-10T06:23:30;11.63;;;5.67;;
65831;SDS011;52593;42.648;23.332;2023-05-10T06:25:56;14.37;;;5.50;;
65831;SDS011;52593;42.648;23.332;2023-05-10T06:28:21;13.30;;;6.10;;
65831;SDS011;52593;42.648;23.332;2023-05-10T06:30:46;12.13;;;5.83;;
65831;SDS011;52593;42.648;23.332;2023-05-10T06:33:12;14.70;;;5.90;;
65831;SDS011;52593;42.648;23.332;2023-05-10T06:35:38;13.43;;;5.90;;
65831;SDS011;52593;42.648;23.332;2023-05-10T06:38:03;13.98;;;6.00;;
65831;SDS011;52593;42.648;23.332;2023-05-10T06:40:29;13.30;;;5.83;;
65831;SDS011;52593;42.648;23.332;2023-05-10T06:42:54;13.97;;;6.47;;
65831;SDS011;52593;42.648;23.332;2023-05-10T06:45:20;15.43;;;7.30;;
65831;SDS011;52593;42.648;23.332;2023-05-10T06:47:45;13.77;;;5.97;;
65831;SDS011;52593;42.648;23.332;2023-05-10T06:50:11;13.47;;;6.27;;
65831;SDS011;52593;42.648;23.332;2023-05-10T06:52:36;12.83;;;5.87;;
65831;SDS011;52593;42.648;23.332;2023-05-10T06:55:02;14.02;;;5.88;;
65831;SDS011;52593;42.648;23.332;2023-05-10T06:57:29;14.60;;;5.88;;
65831;SDS011;52593;42.648;23.332;2023-05-10T06:59:54;16.17;;;6.10;;
65831;SDS011;52593;42.648;23.332;2023-05-10T07:02:21;12.50;;;5.68;;
65831;SDS011;52593;42.648;23.332;2023-05-10T07:04:47;14.73;;;6.20;;
65831;SDS011;52593;42.648;23.332;2023-05-10T07:07:13;11.80;;;5.37;;
65831;SDS011;52593;42.648;23.332;2023-05-10T07:09:39;13.70;;;5.80;;
65831;SDS011;52593;42.648;23.332;2023-05-10T07:12:05;14.15;;;6.35;;
65831;SDS011;52593;42.648;23.332;2023-05-10T07:14:30;12.60;;;5.93;;
65831;SDS011;52593;42.648;23.332;2023-05-10T07:16:55;13.43;;;6.17;;
65831;SDS011;52593;42.648;23.332;2023-05-10T07:19:21;12.83;;;5.87;;
65831;SDS011;52593;42.648;23.332;2023-05-10T07:21:46;11.95;;;5.80;;
65831;SDS011;52593;42.648;23.332;2023-05-10T07:24:12;14.27;;;5.87;;
65831;SDS011;52593;42.648;23.332;2023-05-10T07:26:37;14.13;;;6.40;;
65831;SDS011;52593;42.648;23.332;2023-05-10T07:29:03;13.40;;;6.13;;
65831;SDS011;52593;42.648;23.332;2023-05-10T07:31:28;13.87;;;5.93;;
65831;SDS011;52593;42.648;23.332;2023-05-10T07:33:54;16.67;;;7.00;;
65831;SDS011;52593;42.648;23.332;2023-05-10T07:36:19;15.13;;;6.50;;
65831;SDS011;52593;42.648;23.332;2023-05-10T07:38:44;14.27;;;6.90;;
65831;SDS011;52593;42.648;23.332;2023-05-10T07:41:11;14.82;;;6.30;;
65831;SDS011;52593;42.648;23.332;2023-05-10T07:43:37;15.13;;;6.03;;
65831;SDS011;52593;42.648;23.332;2023-05-10T07:46:02;16.60;;;6.78;;
65831;SDS011;52593;42.648;23.332;2023-05-10T07:48:28;13.70;;;6.33;;
65831;SDS011;52593;42.648;23.332;2023-05-10T07:50:53;15.27;;;7.00;;
65831;SDS011;52593;42.648;23.332;2023-05-10T07:53:19;14.87;;;6.60;;
65831;SDS011;52593;42.648;23.332;2023-05-10T07:55:44;13.53;;;6.83;;
65831;SDS011;52593;42.648;23.332;2023-05-10T07:58:15;16.13;;;6.55;;
65831;SDS011;52593;42.648;23.332;2023-05-10T08:00:40;14.97;;;6.70;;
65831;SDS011;52593;42.648;23.332;2023-05-10T08:03:06;15.00;;;6.40;;
65831;SDS011;52593;42.648;23.332;2023-05-10T08:05:31;15.63;;;6.93;;
65831;SDS011;52593;42.648;23.332;2023-05-10T08:07:56;14.68;;;6.50;;
65831;SDS011;52593;42.648;23.332;2023-05-10T08:10:22;15.43;;;6.97;;
65831;SDS011;52593;42.648;23.332;2023-05-10T08:12:49;14.73;;;6.82;;
65831;SDS011;52593;42.648;23.332;2023-05-10T08:15:14;15.07;;;7.47;;
65831;SDS011;52593;42.648;23.332;2023-05-10T08:17:40;15.33;;;7.50;;
65831;SDS011;52593;42.648;23.332;2023-05-10T08:20:06;16.88;;;6.82;;
65831;SDS011;52593;42.648;23.332;2023-05-10T08:22:32;16.00;;;7.27;;
65831;SDS011;52593;42.648;23.332;2023-05-10T08:24:58;12.48;;;6.22;;
65831;SDS011;52593;42.648;23.332;2023-05-10T08:27:23;12.67;;;6.20;;
65831;SDS011;52593;42.648;23.332;2023-05-10T08:29:48;17.33;;;7.30;;
65831;SDS011;52593;42.648;23.332;2023-05-10T08:32:14;14.10;;;6.40;;
65831;SDS011;52593;42.648;23.332;2023-05-10T08:34:39;13.38;;;7.07;;
65831;SDS011;52593;42.648;23.332;2023-05-10T08:37:05;16.33;;;7.27;;
65831;SDS011;52593;42.648;23.332;2023-05-10T08:39:33;14.73;;;6.97;;
65831;SDS011;52593;42.648;23.332;2023-05-10T08:42:00;13.68;;;6.28;;
65831;SDS011;52593;42.648;23.332;2023-05-10T08:44:29;14.10;;;6.25;;
65831;SDS011;52593;42.648;23.332;2023-05-10T08:46:57;15.50;;;7.23;;
65831;SDS011;52593;42.648;23.332;2023-05-10T08:49:27;13.75;;;6.32;;
65831;SDS011;52593;42.648;23.332;2023-05-10T08:51:55;11.82;;;6.68;;
65831;SDS011;52593;42.648;23.332;2023-05-10T08:54:23;13.15;;;6.43;;
65831;SDS011;52593;42.648;23.332;2023-05-10T08:56:49;13.25;;;6.75;;
65831;SDS011;52593;42.648;23.332;2023-05-10T08:59:15;14.87;;;7.00;;
65831;SDS011;52593;42.648;23.332;2023-05-10T09:01:40;13.23;;;7.00;;
65831;SDS011;52593;42.648;23.332;2023-05-10T09:04:09;13.90;;;7.85;;
65831;SDS011;52593;42.648;23.332;2023-05-10T09:06:34;21.23;;;7.87;;
65831;SDS011;52593;42.648;23.332;2023-05-10T09:09:00;13.52;;;7.90;;
65831;SDS011;52593;42.648;23.332;2023-05-10T09:11:26;15.63;;;7.57;;
65831;SDS011;52593;42.648;23.332;2023-05-10T09:13:53;13.20;;;7.30;;
65831;SDS011;52593;42.648;23.332;2023-05-10T09:16:20;14.65;;;7.43;;
65831;SDS011;52593;42.648;23.332;2023-05-10T09:18:45;16.55;;;8.02;;
65831;SDS011;52593;42.648;23.332;2023-05-10T09:21:11;19.37;;;8.20;;
65831;SDS011;52593;42.648;23.332;2023-05-10T09:23:37;17.27;;;7.87;;
65831;SDS011;52593;42.648;23.332;2023-05-10T09:26:05;17.30;;;8.83;;
65831;SDS011;52593;42.648;23.332;2023-05-10T09:28:31;16.05;;;7.97;;
65831;SDS011;52593;42.648;23.332;2023-05-10T09:30:58;15.87;;;7.37;;
65831;SDS011;52593;42.648;23.332;2023-05-10T09:33:23;17.33;;;8.30;;
65831;SDS011;52593;42.648;23.332;2023-05-10T09:35:49;14.67;;;7.23;;
65831;SDS011;52593;42.648;23.332;2023-05-10T09:38:17;18.77;;;8.95;;
65831;SDS011;52593;42.648;23.332;2023-05-10T09:40:42;16.30;;;8.47;;
65831;SDS011;52593;42.648;23.332;2023-05-10T09:43:20;17.33;;;8.65;;
65831;SDS011;52593;42.648;23.332;2023-05-10T09:45:45;16.13;;;7.50;;
65831;SDS011;52593;42.648;23.332;2023-05-10T09:48:14;16.42;;;7.65;;
65831;SDS011;52593;42.648;23.332;2023-05-10T09:50:40;15.25;;;8.52;;
65831;SDS011;52593;42.648;23.332;2023-05-10T09:53:06;16.40;;;7.70;;
65831;SDS011;52593;42.648;23.332;2023-05-10T09:55:39;17.00;;;8.75;;
65831;SDS011;52593;42.648;23.332;2023-05-10T09:58:06;17.87;;;8.23;;
65831;SDS011;52593;42.648;23.332;2023-05-10T10:00:39;15.90;;;7.97;;
65831;SDS011;52593;42.648;23.332;2023-05-10T10:03:05;15.63;;;8.65;;
65831;SDS011;52593;42.648;23.332;2023-05-10T10:05:36;14.85;;;7.55;;
65831;SDS011;52593;42.648;23.332;2023-05-10T10:08:05;15.90;;;7.43;;
65831;SDS011;52593;42.648;23.332;2023-05-10T10:10:32;16.10;;;7.27;;
65831;SDS011;52593;42.648;23.332;2023-05-10T10:12:58;17.13;;;7.82;;
65831;SDS011;52593;42.648;23.332;2023-05-10T10:15:24;16.17;;;7.78;;
65831;SDS011;52593;42.648;23.332;2023-05-10T10:17:50;13.93;;;7.73;;
65831;SDS011;52593;42.648;23.332;2023-05-10T10:20:17;13.50;;;7.43;;
65831;SDS011;52593;42.648;23.332;2023-05-10T10:22:43;14.70;;;7.18;;
65831;SDS011;52593;42.648;23.332;2023-05-10T10:25:12;13.85;;;7.40;;
65831;SDS011;52593;42.648;23.332;2023-05-10T10:35:48;17.88;;;7.35;;
65831;SDS011;52593;42.648;23.332;2023-05-10T10:38:15;14.75;;;6.00;;
65831;SDS011;52593;42.648;23.332;2023-05-10T10:40:42;13.30;;;6.60;;
65831;SDS011;52593;42.648;23.332;2023-05-10T10:48:35;11.73;;;6.63;;
65831;SDS011;52593;42.648;23.332;2023-05-10T10:51:00;13.90;;;6.00;;
65831;SDS011;52593;42.648;23.332;2023-05-10T10:53:26;13.27;;;6.17;;
65831;SDS011;52593;42.648;23.332;2023-05-10T10:56:11;13.05;;;6.55;;
65831;SDS011;52593;42.648;23.332;2023-05-10T10:58:40;13.75;;;6.75;;
65831;SDS011;52593;42.648;23.332;2023-05-10T11:01:15;15.07;;;6.67;;
65831;SDS011;52593;42.648;23.332;2023-05-10T11:04:27;12.55;;;6.50;;
65831;SDS011;52593;42.648;23.332;2023-05-10T11:08:57;12.68;;;6.57;;
65831;SDS011;52593;42.648;23.332;2023-05-10T11:11:22;15.37;;;6.80;;
65831;SDS011;52593;42.648;23.332;2023-05-10T11:13:48;14.63;;;6.60;;
65831;SDS011;52593;42.648;23.332;2023-05-10T11:16:18;13.52;;;6.22;;
65831;SDS011;52593;42.648;23.332;2023-05-10T11:18:51;13.23;;;6.30;;
65831;SDS011;52593;42.648;23.332;2023-05-10T11:21:29;11.25;;;5.90;;
65831;SDS011;52593;42.648;23.332;2023-05-10T11:23:56;11.02;;;6.18;;
65831;SDS011;52593;42.648;23.332;2023-05-10T11:26:23;13.70;;;6.47;;
65831;SDS011;52593;42.648;23.332;2023-05-10T11:28:51;13.48;;;6.80;;
65831;SDS011;52593;42.648;23.332;2023-05-10T11:31:19;13.43;;;6.70;;
65831;SDS011;52593;42.648;23.332;2023-05-10T11:33:46;15.82;;;6.82;;
65831;SDS011;52593;42.648;23.332;2023-05-10T11:36:13;12.40;;;6.53;;
65831;SDS011;52593;42.648;23.332;2023-05-10T11:38:40;11.67;;;6.00;;
65831;SDS011;52593;42.648;23.332;2023-05-10T11:41:05;11.95;;;6.13;;
65831;SDS011;52593;42.648;23.332;2023-05-10T11:43:34;11.77;;;6.45;;
65831;SDS011;52593;42.648;23.332;2023-05-10T11:46:01;13.77;;;6.37;;
65831;SDS011;52593;42.648;23.332;2023-05-10T11:48:29;13.43;;;5.75;;
65831;SDS011;52593;42.648;23.332;2023-05-10T11:50:55;12.45;;;6.78;;
65831;SDS011;52593;42.648;23.332;2023-05-10T11:53:22;11.65;;;6.05;;
65831;SDS011;52593;42.648;23.332;2023-05-10T11:55:47;12.43;;;6.23;;
65831;SDS011;52593;42.648;23.332;2023-05-10T11:58:13;12.15;;;6.30;;
65831;SDS011;52593;42.648;23.332;2023-05-10T12:00:38;16.70;;;6.30;;
65831;SDS011;52593;42.648;23.332;2023-05-10T12:03:04;16.10;;;7.20;;
65831;SDS011;52593;42.648;23.332;2023-05-10T12:05:31;13.43;;;7.10;;
65831;SDS011;52593;42.648;23.332;2023-05-10T12:08:11;14.50;;;7.15;;
65831;SDS011;52593;42.648;23.332;2023-05-10T12:10:37;13.50;;;6.57;;
65831;SDS011;52593;42.648;23.332;2023-05-10T12:13:03;16.93;;;7.33;;
65831;SDS011;52593;42.648;23.332;2023-05-10T12:15:28;14.37;;;7.17;;
65831;SDS011;52593;42.648;23.332;2023-05-10T12:17:53;12.70;;;6.53;;
65831;SDS011;52593;42.648;23.332;2023-05-10T12:20:20;13.23;;;7.33;;
65831;SDS011;52593;42.648;23.332;2023-05-10T12:25:17;19.58;;;6.93;;
65831;SDS011;52593;42.648;23.332;2023-05-10T12:27:48;13.73;;;6.55;;
65831;SDS011;52593;42.648;23.332;2023-05-10T12:30:27;16.20;;;6.80;;
65831;SDS011;52593;42.648;23.332;2023-05-10T12:32:54;15.13;;;6.78;;
65831;SDS011;52593;42.648;23.332;2023-05-10T12:35:25;14.75;;;7.05;;
65831;SDS011;52593;42.648;23.332;2023-05-10T12:37:51;13.63;;;7.13;;
65831;SDS011;52593;42.648;23.332;2023-05-10T12:40:16;20.73;;;7.40;;
65831;SDS011;52593;42.648;23.332;2023-05-10T12:42:42;13.10;;;7.13;;
65831;SDS011;52593;42.648;23.332;2023-05-10T12:45:10;17.20;;;7.60;;
65831;SDS011;52593;42.648;23.332;2023-05-10T12:47:36;17.45;;;7.38;;
65831;SDS011;52593;42.648;23.332;2023-05-10T12:50:02;14.73;;;6.83;;
65831;SDS011;52593;42.648;23.332;2023-05-10T12:52:28;14.50;;;7.32;;
65831;SDS011;52593;42.648;23.332;2023-05-10T12:54:54;15.15;;;7.68;;
65831;SDS011;52593;42.648;23.332;2023-05-10T12:57:20;14.30;;;7.27;;
65831;SDS011;52593;42.648;23.332;2023-05-10T12:59:46;18.95;;;7.57;;
65831;SDS011;52593;42.648;23.332;2023-05-10T13:02:11;15.20;;;7.63;;
65831;SDS011;52593;42.648;23.332;2023-05-10T13:04:38;15.25;;;7.50;;
65831;SDS011;52593;42.648;23.332;2023-05-10T13:07:05;14.18;;;7.28;;
65831;SDS011;52593;42.648;23.332;2023-05-10T13:09:31;15.30;;;6.70;;
65831;SDS011;52593;42.648;23.332;2023-05-10T13:11:56;17.75;;;6.95;;
65831;SDS011;52593;42.648;23.332;2023-05-10T13:14:22;20.27;;;7.90;;
65831;SDS011;52593;42.648;23.332;2023-05-10T13:16:47;16.87;;;7.73;;
65831;SDS011;52593;42.648;23.332;2023-05-10T13:19:13;15.97;;;7.17;;
65831;SDS011;52593;42.648;23.332;2023-05-10T13:21:39;18.27;;;7.90;;
65831;SDS011;52593;42.648;23.332;2023-05-10T13:24:07;13.70;;;6.50;;
65831;SDS011;52593;42.648;23.332;2023-05-10T13:26:33;16.03;;;7.60;;
65831;SDS011;52593;42.648;23.332;2023-05-10T13:28:58;16.57;;;7.37;;
65831;SDS011;52593;42.648;23.332;2023-05-10T13:31:24;17.27;;;7.33;;
65831;SDS011;52593;42.648;23.332;2023-05-10T13:33:50;13.98;;;7.25;;
65831;SDS011;52593;42.648;23.332;2023-05-10T13:36:15;18.97;;;7.33;;
65831;SDS011;52593;42.648;23.332;2023-05-10T13:38:41;15.48;;;7.00;;
65831;SDS011;52593;42.648;23.332;2023-05-10T13:41:06;18.10;;;6.87;;
65831;SDS011;52593;42.648;23.332;2023-05-10T13:43:32;15.77;;;7.07;;
65831;SDS011;52593;42.648;23.332;2023-05-10T13:45:57;13.93;;;6.50;;
65831;SDS011;52593;42.648;23.332;2023-05-10T13:48:22;14.47;;;7.47;;
65831;SDS011;52593;42.648;23.332;2023-05-10T13:50:48;16.43;;;7.03;;
65831;SDS011;52593;42.648;23.332;2023-05-10T13:53:13;13.13;;;6.90;;
65831;SDS011;52593;42.648;23.332;2023-05-10T13:59:01;16.00;;;7.70;;
65831;SDS011;52593;42.648;23.332;2023-05-10T14:01:26;14.82;;;7.03;;
65831;SDS011;52593;42.648;23.332;2023-05-10T14:03:52;17.93;;;7.00;;
65831;SDS011;52593;42.648;23.332;2023-05-10T14:06:17;16.50;;;6.80;;
65831;SDS011;52593;42.648;23.332;2023-05-10T14:08:43;13.93;;;5.97;;
65831;SDS011;52593;42.648;23.332;2023-05-10T14:11:08;14.18;;;5.97;;
65831;SDS011;52593;42.648;23.332;2023-05-10T14:13:34;14.10;;;6.43;;
65831;SDS011;52593;42.648;23.332;2023-05-10T14:15:59;12.17;;;6.23;;
65831;SDS011;52593;42.648;23.332;2023-05-10T14:18:26;14.60;;;6.93;;
65831;SDS011;52593;42.648;23.332;2023-05-10T14:20:51;14.32;;;7.07;;
65831;SDS011;52593;42.648;23.332;2023-05-10T14:23:17;11.60;;;6.43;;
65831;SDS011;52593;42.648;23.332;2023-05-10T14:25:44;15.23;;;6.78;;
65831;SDS011;52593;42.648;23.332;2023-05-10T14:28:10;14.13;;;6.87;;
65831;SDS011;52593;42.648;23.332;2023-05-10T14:30:38;13.20;;;6.38;;
65831;SDS011;52593;42.648;23.332;2023-05-10T14:33:04;15.88;;;6.85;;
65831;SDS011;52593;42.648;23.332;2023-05-10T14:35:29;16.53;;;7.07;;
65831;SDS011;52593;42.648;23.332;2023-05-10T14:37:56;13.68;;;6.65;;
65831;SDS011;52593;42.648;23.332;2023-05-10T14:40:22;12.37;;;6.10;;
65831;SDS011;52593;42.648;23.332;2023-05-10T14:42:47;14.03;;;6.97;;
65831;SDS011;52593;42.648;23.332;2023-05-10T14:45:13;17.37;;;7.07;;
65831;SDS011;52593;42.648;23.332;2023-05-10T14:47:38;15.23;;;6.70;;
65831;SDS011;52593;42.648;23.332;2023-05-10T14:50:04;14.30;;;6.70;;
65831;SDS011;52593;42.648;23.332;2023-05-10T14:55:52;15.13;;;7.03;;
65831;SDS011;52593;42.648;23.332;2023-05-10T14:58:17;16.63;;;9.00;;
65831;SDS011;52593;42.648;23.332;2023-05-10T15:00:42;15.47;;;6.30;;
65831;SDS011;52593;42.648;23.332;2023-05-10T15:03:08;14.75;;;6.32;;
65831;SDS011;52593;42.648;23.332;2023-05-10T15:05:37;12.40;;;6.22;;